createdAt,value
2023-03-29T00:00:08.177Z,2.30
2023-03-29T00:02:35.235Z,1.58
2023-03-29T00:05:04.056Z,1.83
2023-03-29T00:07:33.575Z,1.60
2023-03-29T00:10:02.086Z,2.53
2023-03-29T00:12:29.253Z,1.50
2023-03-29T00:14:56.550Z,1.35
2023-03-29T00:17:23.483Z,2.50
2023-03-29T00:19:50.570Z,1.83
2023-03-29T00:22:17.643Z,2.62
2023-03-29T00:24:47.807Z,2.17
2023-03-29T00:27:17.929Z,1.30
2023-03-29T00:29:44.777Z,1.55
2023-03-29T00:32:11.795Z,2.37
2023-03-29T00:34:38.950Z,1.73
2023-03-29T00:37:08.859Z,2.55
2023-03-29T00:39:36.941Z,2.58
2023-03-29T00:42:04.155Z,7.50
2023-03-29T00:44:58.981Z,2.63
2023-03-29T00:47:31.406Z,2.12
2023-03-29T00:50:04.916Z,3.60
2023-03-29T00:52:33.383Z,1.90
2023-03-29T00:55:06.392Z,3.05
2023-03-29T00:57:34.328Z,2.00
2023-03-29T01:00:05.059Z,2.37
2023-03-29T01:02:35.016Z,2.20
2023-03-29T01:05:20.189Z,2.80
2023-03-29T01:07:58.158Z,2.87
2023-03-29T01:10:36.993Z,2.40
2023-03-29T01:13:09.605Z,2.53
2023-03-29T01:15:37.807Z,3.25
2023-03-29T01:18:05.160Z,2.70
2023-03-29T01:20:51.692Z,2.83
2023-03-29T01:23:40.240Z,2.70
2023-03-29T01:26:36.258Z,3.10
2023-03-29T01:29:22.582Z,3.37
2023-03-29T01:31:58.158Z,2.58
2023-03-29T01:34:51.126Z,2.78
2023-03-29T01:37:29.894Z,1.83
2023-03-29T01:39:56.786Z,2.50
2023-03-29T01:42:29.516Z,1.95
2023-03-29T01:45:07.964Z,2.10
2023-03-29T01:47:59.488Z,2.80
2023-03-29T01:50:44.886Z,3.60
2023-03-29T01:53:24.901Z,3.80
2023-03-29T01:55:55.615Z,5.40
2023-03-29T01:58:27.906Z,4.07
2023-03-29T02:00:55.504Z,2.12
2023-03-29T02:03:26.615Z,3.57
2023-03-29T02:05:55.338Z,2.90
2023-03-29T02:08:23.434Z,3.35
2023-03-29T02:10:51.866Z,2.25
2023-03-29T02:13:19.846Z,4.85
2023-03-29T02:15:47.632Z,4.90
2023-03-29T02:18:19.911Z,8.43
2023-03-29T02:20:50.858Z,8.38
2023-03-29T02:23:24.540Z,9.18
2023-03-29T02:25:57.109Z,6.43
2023-03-29T02:28:25.879Z,7.00
2023-03-29T02:30:57.657Z,5.28
2023-03-29T02:33:36.802Z,6.25
2023-03-29T02:36:10.364Z,5.70
2023-03-29T02:38:39.154Z,5.45
2023-03-29T02:41:07.281Z,3.90
2023-03-29T02:43:36.020Z,4.62
2023-03-29T02:46:05.492Z,3.50
2023-03-29T02:48:33.943Z,3.28
2023-03-29T02:51:05.868Z,5.22
2023-03-29T02:53:41.390Z,6.33
2023-03-29T02:56:09.348Z,4.37
2023-03-29T02:58:36.762Z,3.72
2023-03-29T03:01:06.790Z,4.45
2023-03-29T03:03:35.786Z,5.35
2023-03-29T03:06:03.381Z,4.30
2023-03-29T03:08:30.720Z,3.20
2023-03-29T03:10:58.284Z,2.33
2023-03-29T03:13:25.641Z,4.20
2023-03-29T03:15:52.626Z,5.15
2023-03-29T03:18:20.211Z,3.90
2023-03-29T03:20:59.412Z,3.72
2023-03-29T03:23:26.787Z,4.82
2023-03-29T03:25:53.803Z,2.50
2023-03-29T03:28:22.124Z,3.65
2023-03-29T03:30:49.655Z,3.13
2023-03-29T03:33:17.042Z,3.85
2023-03-29T03:35:46.571Z,4.05
2023-03-29T03:38:13.628Z,3.35
2023-03-29T03:40:40.510Z,3.55
2023-03-29T03:43:08.081Z,4.57
2023-03-29T03:45:35.570Z,7.50
2023-03-29T03:48:02.467Z,8.50
2023-03-29T03:50:33.573Z,6.15
2023-03-29T03:53:00.420Z,5.78
2023-03-29T03:55:30.080Z,5.07
2023-03-29T03:57:57.209Z,5.32
2023-03-29T04:00:24.536Z,4.10
2023-03-29T04:02:54.421Z,2.55
2023-03-29T04:05:21.782Z,4.93
2023-03-29T04:07:48.896Z,5.50
2023-03-29T04:10:15.834Z,5.45
2023-03-29T04:12:42.770Z,3.67
2023-03-29T04:15:10.607Z,6.78
2023-03-29T04:17:37.870Z,3.47
2023-03-29T04:20:12.757Z,3.77
2023-03-29T04:22:40.345Z,9.45
2023-03-29T04:25:08.342Z,4.07
2023-03-29T04:27:35.192Z,4.15
2023-03-29T04:30:02.182Z,3.67
2023-03-29T04:32:29.345Z,5.17
2023-03-29T04:34:56.504Z,3.92
2023-03-29T04:37:23.561Z,5.07
2023-03-29T04:39:52.543Z,6.28
2023-03-29T04:42:19.422Z,5.30
2023-03-29T04:44:46.531Z,4.03
2023-03-29T04:47:13.419Z,6.93
2023-03-29T04:49:41.043Z,5.55
2023-03-29T04:52:09.130Z,6.93
2023-03-29T04:54:37.364Z,10.75
2023-03-29T04:57:08.815Z,9.50
2023-03-29T04:59:35.840Z,6.30
2023-03-29T05:02:04.938Z,7.30
2023-03-29T05:04:33.096Z,5.95
2023-03-29T05:07:01.665Z,14.15
2023-03-29T05:09:29.532Z,11.93
2023-03-29T05:11:56.952Z,9.15
2023-03-29T05:14:23.824Z,11.38
2023-03-29T05:16:50.723Z,11.27
2023-03-29T05:19:17.677Z,26.58
2023-03-29T05:21:45.634Z,62.13
2023-03-29T05:24:12.693Z,37.65
2023-03-29T05:26:40.114Z,12.07
2023-03-29T05:29:09.047Z,16.70
2023-03-29T05:31:37.940Z,19.35
2023-03-29T05:34:05.492Z,16.20
2023-03-29T05:36:32.861Z,17.48
2023-03-29T05:38:59.953Z,14.80
2023-03-29T05:41:27.140Z,13.27
2023-03-29T05:43:53.919Z,15.70
2023-03-29T05:46:20.994Z,21.67
2023-03-29T05:48:47.959Z,22.23
2023-03-29T05:51:14.905Z,20.48
2023-03-29T05:53:43.288Z,13.52
2023-03-29T05:56:11.201Z,17.98
2023-03-29T05:58:39.414Z,21.80
2023-03-29T06:01:11.473Z,14.27
2023-03-29T06:03:38.797Z,11.25
2023-03-29T06:06:06.534Z,9.70
2023-03-29T06:08:35.134Z,7.62
2023-03-29T06:11:05.861Z,7.00
2023-03-29T06:13:37.303Z,14.93
2023-03-29T06:16:07.410Z,7.03
2023-03-29T06:18:35.118Z,4.80
2023-03-29T06:21:02.860Z,6.53
2023-03-29T06:23:30.831Z,10.30
2023-03-29T06:25:58.149Z,14.20
2023-03-29T06:28:25.108Z,7.30
2023-03-29T06:30:54.071Z,7.75
2023-03-29T06:33:21.217Z,6.20
2023-03-29T06:35:49.569Z,5.43
2023-03-29T06:38:16.920Z,4.22
2023-03-29T06:40:44.813Z,5.50
2023-03-29T06:43:11.971Z,5.45
2023-03-29T06:45:39.471Z,5.00
2023-03-29T06:48:10.759Z,5.57
2023-03-29T06:50:38.224Z,5.68
2023-03-29T06:53:05.286Z,7.25
2023-03-29T06:55:32.250Z,14.25
2023-03-29T06:58:02.316Z,9.27
2023-03-29T07:00:30.650Z,15.23
2023-03-29T07:02:58.623Z,58.00
2023-03-29T07:05:29.335Z,25.25
2023-03-29T07:08:08.258Z,28.00
2023-03-29T07:10:43.217Z,12.30
2023-03-29T07:13:14.046Z,10.93
2023-03-29T07:15:42.316Z,8.70
2023-03-29T07:18:10.315Z,9.23
2023-03-29T07:20:41.784Z,9.70
2023-03-29T07:23:09.574Z,7.43
2023-03-29T07:25:38.308Z,5.73
2023-03-29T07:28:06.279Z,4.05
2023-03-29T07:30:33.676Z,5.10
2023-03-29T07:33:00.850Z,5.20
2023-03-29T07:35:28.137Z,3.35
2023-03-29T07:37:55.974Z,3.43
2023-03-29T07:40:24.144Z,1.80
2023-03-29T07:42:54.295Z,3.45
2023-03-29T07:45:26.776Z,3.15
2023-03-29T07:47:59.591Z,2.78
2023-03-29T07:50:27.956Z,2.30
2023-03-29T07:52:55.230Z,3.83
2023-03-29T07:55:22.286Z,2.87
2023-03-29T07:57:50.324Z,3.85
2023-03-29T08:00:19.669Z,2.28
2023-03-29T08:02:50.005Z,1.93
2023-03-29T08:05:26.004Z,4.95
2023-03-29T08:07:53.073Z,2.47
2023-03-29T08:10:21.986Z,1.48
2023-03-29T08:12:50.454Z,1.42
2023-03-29T08:15:17.433Z,2.70
2023-03-29T08:17:45.135Z,1.58
2023-03-29T08:20:15.103Z,5.68
2023-03-29T08:22:42.443Z,2.62
2023-03-29T08:25:09.921Z,2.10
2023-03-29T08:27:37.796Z,1.97
2023-03-29T08:30:07.948Z,2.70
2023-03-29T08:32:35.537Z,1.10
2023-03-29T08:35:04.550Z,1.87
2023-03-29T08:37:31.986Z,1.62
2023-03-29T08:39:58.920Z,2.77
2023-03-29T08:42:28.766Z,1.40
2023-03-29T08:45:20.080Z,2.65
2023-03-29T08:48:07.800Z,7.50
2023-03-29T08:50:42.947Z,1.15
2023-03-29T08:53:27.315Z,1.43
2023-03-29T08:55:58.910Z,0.95
2023-03-29T08:58:32.897Z,3.15
2023-03-29T09:01:01.845Z,1.75
2023-03-29T09:03:34.480Z,1.25
2023-03-29T09:06:07.746Z,1.20
2023-03-29T09:09:01.641Z,1.52
2023-03-29T09:11:48.403Z,2.60
2023-03-29T09:14:59.972Z,6.22
2023-03-29T09:17:38.951Z,1.27
2023-03-29T09:20:32.771Z,0.80
2023-03-29T09:23:48.986Z,1.90
2023-03-29T09:26:19.982Z,0.82
2023-03-29T09:29:15.437Z,1.10
2023-03-29T09:31:44.851Z,3.53
2023-03-29T09:34:14.566Z,2.53
2023-03-29T09:36:53.881Z,2.20
2023-03-29T09:39:22.800Z,1.62
2023-03-29T09:41:56.899Z,1.33
2023-03-29T09:44:45.744Z,1.50
2023-03-29T09:47:21.255Z,1.50
2023-03-29T09:49:52.338Z,1.48
2023-03-29T09:52:20.978Z,4.00
2023-03-29T09:54:48.537Z,1.83
2023-03-29T09:57:18.320Z,1.35
2023-03-29T09:59:48.453Z,1.53
2023-03-29T10:02:15.584Z,3.17
2023-03-29T10:04:43.054Z,4.28
2023-03-29T10:07:18.321Z,2.03
2023-03-29T10:09:46.744Z,1.42
2023-03-29T10:12:14.128Z,1.70
2023-03-29T10:14:54.192Z,1.65
2023-03-29T10:17:29.626Z,1.90
2023-03-29T10:20:00.342Z,1.30
2023-03-29T10:22:35.655Z,3.17
2023-03-29T10:25:02.618Z,2.03
2023-03-29T10:27:32.157Z,2.40
2023-03-29T10:30:07.456Z,1.92
2023-03-29T10:32:38.916Z,2.25
2023-03-29T10:35:23.922Z,2.92
2023-03-29T10:37:53.311Z,1.13
2023-03-29T10:40:30.884Z,2.22
2023-03-29T10:43:34.883Z,2.70
2023-03-29T10:46:13.273Z,2.30
2023-03-29T10:48:47.874Z,1.95
2023-03-29T10:51:17.022Z,2.93
2023-03-29T10:53:44.146Z,3.30
2023-03-29T10:56:40.402Z,2.12
2023-03-29T10:59:29.810Z,3.90
2023-03-29T11:02:17.717Z,2.65
2023-03-29T11:05:00.330Z,2.20
2023-03-29T11:07:52.609Z,3.22
2023-03-29T11:10:38.673Z,2.40
2023-03-29T11:13:29.923Z,4.68
2023-03-29T11:16:08.549Z,3.28
2023-03-29T11:18:51.008Z,2.53
2023-03-29T11:21:39.869Z,2.97
2023-03-29T11:24:25.337Z,3.22
2023-03-29T11:27:04.873Z,3.15
2023-03-29T11:30:02.385Z,2.50
2023-03-29T11:32:55.596Z,4.57
2023-03-29T11:35:32.560Z,2.17
2023-03-29T11:38:08.588Z,2.47
2023-03-29T11:40:54.851Z,2.42
2023-03-29T11:43:32.086Z,3.50
2023-03-29T11:46:23.585Z,2.17
2023-03-29T11:48:53.005Z,4.25
2023-03-29T11:51:43.423Z,2.72
2023-03-29T11:54:28.535Z,2.15
2023-03-29T11:57:32.121Z,4.28
2023-03-29T12:00:12.429Z,2.83
2023-03-29T12:02:46.326Z,4.03
2023-03-29T12:05:28.445Z,4.60
2023-03-29T12:08:08.544Z,5.90
2023-03-29T12:10:43.861Z,3.65
2023-03-29T12:13:28.904Z,2.57
2023-03-29T12:16:02.650Z,2.92
2023-03-29T12:18:41.519Z,4.45
2023-03-29T12:21:24.704Z,3.08
2023-03-29T12:23:52.343Z,2.35
2023-03-29T12:26:34.183Z,13.20
2023-03-29T12:29:01.117Z,5.53
2023-03-29T12:31:40.468Z,3.92
2023-03-29T12:34:13.537Z,4.28
2023-03-29T12:36:50.781Z,5.20
2023-03-29T12:39:20.517Z,3.97
2023-03-29T12:41:53.516Z,5.22
2023-03-29T12:44:23.898Z,2.35
2023-03-29T12:46:58.160Z,3.20
2023-03-29T12:49:34.321Z,7.22
2023-03-29T12:52:27.580Z,3.90
2023-03-29T12:55:00.724Z,5.60
2023-03-29T12:58:01.041Z,3.87
2023-03-29T13:00:45.038Z,3.55
2023-03-29T13:03:40.448Z,3.80
2023-03-29T13:06:10.349Z,2.73
2023-03-29T13:08:46.274Z,3.10
2023-03-29T13:11:28.198Z,4.22
2023-03-29T13:13:55.729Z,4.65
2023-03-29T13:16:35.071Z,4.00
2023-03-29T13:19:30.169Z,4.70
2023-03-29T13:22:33.053Z,3.28
2023-03-29T13:25:42.159Z,4.80
2023-03-29T13:28:28.692Z,6.28
2023-03-29T13:31:17.562Z,4.45
2023-03-29T13:33:58.316Z,3.73
2023-03-29T13:36:52.306Z,3.28
2023-03-29T13:39:28.419Z,3.87
2023-03-29T13:42:19.821Z,2.47
2023-03-29T13:44:49.257Z,2.42
2023-03-29T13:47:19.170Z,3.57
2023-03-29T13:49:54.727Z,2.70
2023-03-29T13:52:29.294Z,3.55
2023-03-29T13:55:21.446Z,4.32
2023-03-29T13:58:00.996Z,3.45
2023-03-29T14:00:55.524Z,5.53
2023-03-29T14:03:29.783Z,2.45
2023-03-29T14:06:00.548Z,2.55
2023-03-29T14:08:32.007Z,3.72
2023-03-29T14:11:03.572Z,4.18
2023-03-29T14:13:31.218Z,5.03
2023-03-29T14:16:10.378Z,4.20
2023-03-29T14:18:40.547Z,3.95
2023-03-29T14:21:08.544Z,3.10
2023-03-29T14:23:37.823Z,3.40
2023-03-29T14:26:20.560Z,3.90
2023-03-29T14:28:56.593Z,3.78
2023-03-29T14:31:33.243Z,3.45
2023-03-29T14:34:02.262Z,4.57
2023-03-29T14:36:32.365Z,3.72
2023-03-29T14:39:06.019Z,3.87
2023-03-29T14:41:36.814Z,3.33
2023-03-29T14:44:06.868Z,2.50
2023-03-29T14:46:34.905Z,3.67
2023-03-29T14:49:02.511Z,5.62
2023-03-29T14:51:31.243Z,3.63
2023-03-29T14:54:00.290Z,2.92
2023-03-29T14:56:27.573Z,3.53
2023-03-29T14:58:56.676Z,4.97
2023-03-29T15:01:26.036Z,5.95
2023-03-29T15:04:06.422Z,5.00
2023-03-29T15:06:39.274Z,3.78
2023-03-29T15:09:07.103Z,3.28
2023-03-29T15:11:34.904Z,3.28
2023-03-29T15:14:14.133Z,4.70
2023-03-29T15:16:43.807Z,2.77
2023-03-29T15:19:20.408Z,5.00
2023-03-29T15:21:51.160Z,4.82
2023-03-29T15:24:29.970Z,4.37
2023-03-29T15:27:11.236Z,3.87
2023-03-29T15:29:43.767Z,5.27
2023-03-29T15:32:22.915Z,3.50
2023-03-29T15:35:05.142Z,5.93
2023-03-29T15:37:32.534Z,6.45
2023-03-29T15:39:59.744Z,8.63
2023-03-29T15:42:26.712Z,7.07
2023-03-29T15:44:55.332Z,5.10
2023-03-29T15:47:22.600Z,4.32
2023-03-29T15:49:49.818Z,18.15
2023-03-29T15:52:16.993Z,4.70
2023-03-29T15:54:43.987Z,2.93
2023-03-29T15:57:18.273Z,5.90
2023-03-29T15:59:45.491Z,5.37
2023-03-29T16:02:15.748Z,4.30
2023-03-29T16:04:43.512Z,8.13
2023-03-29T16:07:13.902Z,3.47
2023-03-29T16:09:41.456Z,4.12
2023-03-29T16:12:09.279Z,3.75
2023-03-29T16:14:36.239Z,3.12
2023-03-29T16:17:03.381Z,22.52
2023-03-29T16:19:31.868Z,5.33
2023-03-29T16:22:00.819Z,3.58
2023-03-29T16:24:31.202Z,4.07
2023-03-29T16:26:58.924Z,3.50
2023-03-29T16:29:26.052Z,2.92
2023-03-29T16:31:53.575Z,4.50
2023-03-29T16:34:22.862Z,4.28
2023-03-29T16:36:50.742Z,4.35
2023-03-29T16:39:18.389Z,4.87
2023-03-29T16:41:48.504Z,4.55
2023-03-29T16:44:20.086Z,5.77
2023-03-29T16:46:48.973Z,5.50
2023-03-29T16:49:18.275Z,5.70
2023-03-29T16:51:48.753Z,4.87
2023-03-29T16:54:17.302Z,6.93
2023-03-29T16:56:44.368Z,8.77
2023-03-29T16:59:12.130Z,11.85
2023-03-29T17:01:40.985Z,12.23
2023-03-29T17:04:08.551Z,18.00
2023-03-29T17:06:36.098Z,10.05
2023-03-29T17:09:03.984Z,15.33
2023-03-29T17:11:31.205Z,11.30
2023-03-29T17:13:58.502Z,11.10
2023-03-29T17:16:25.492Z,6.75
2023-03-29T17:18:52.551Z,9.73
2023-03-29T17:21:19.711Z,10.83
2023-03-29T17:23:46.710Z,8.25
2023-03-29T17:26:15.036Z,9.43
2023-03-29T17:28:43.586Z,11.07
2023-03-29T17:31:10.719Z,16.00
2023-03-29T17:33:37.969Z,15.47
2023-03-29T17:36:06.275Z,16.87
2023-03-29T17:38:34.464Z,18.58
2023-03-29T17:41:03.194Z,13.32
2023-03-29T17:43:35.069Z,13.57
2023-03-29T17:46:02.412Z,13.37
2023-03-29T17:48:30.345Z,19.58
2023-03-29T17:50:58.330Z,13.52
2023-03-29T17:53:25.746Z,14.63
2023-03-29T17:55:53.377Z,16.70
2023-03-29T17:58:21.357Z,28.87
2023-03-29T18:00:49.154Z,28.30
2023-03-29T18:03:17.035Z,31.42
2023-03-29T18:05:44.455Z,34.03
2023-03-29T18:08:13.669Z,50.55
2023-03-29T18:10:40.998Z,34.90
2023-03-29T18:13:12.525Z,28.85
2023-03-29T18:15:42.996Z,31.52
2023-03-29T18:18:11.288Z,29.70
2023-03-29T18:20:38.774Z,38.17
2023-03-29T18:23:06.649Z,34.37
2023-03-29T18:25:34.676Z,23.33
2023-03-29T18:28:03.499Z,18.00
2023-03-29T18:30:30.920Z,19.55
2023-03-29T18:32:58.555Z,30.62
2023-03-29T18:35:26.333Z,26.93
2023-03-29T18:37:54.091Z,16.30
2023-03-29T18:40:25.108Z,18.77
2023-03-29T18:42:52.973Z,20.60
2023-03-29T18:45:21.971Z,18.70
2023-03-29T18:47:51.077Z,23.47
2023-03-29T18:50:19.241Z,22.13
2023-03-29T18:52:47.520Z,21.02
2023-03-29T18:55:15.505Z,14.95
2023-03-29T18:57:43.520Z,17.40
2023-03-29T19:00:15.298Z,14.33
2023-03-29T19:02:42.727Z,20.73
2023-03-29T19:05:11.386Z,19.08
2023-03-29T19:07:39.688Z,12.37
2023-03-29T19:10:08.974Z,20.92
2023-03-29T19:12:37.236Z,14.50
2023-03-29T19:15:05.318Z,15.05
2023-03-29T19:17:33.315Z,16.30
2023-03-29T19:20:02.059Z,16.23
2023-03-29T19:22:29.824Z,16.30
2023-03-29T19:24:57.310Z,14.63
2023-03-29T19:27:24.954Z,13.82
2023-03-29T19:29:52.941Z,14.77
2023-03-29T19:32:20.885Z,17.40
2023-03-29T19:34:48.499Z,17.05
2023-03-29T19:37:17.692Z,17.80
2023-03-29T19:39:46.079Z,18.77
2023-03-29T19:42:14.154Z,15.98
2023-03-29T19:44:42.839Z,21.48
2023-03-29T19:47:10.325Z,15.70
2023-03-29T19:49:38.934Z,16.40
2023-03-29T19:52:07.872Z,16.17
2023-03-29T19:54:35.904Z,11.90
2023-03-29T19:57:04.227Z,19.67
2023-03-29T19:59:32.538Z,20.33
2023-03-29T20:02:02.747Z,20.93
2023-03-29T20:04:33.459Z,20.35
2023-03-29T20:07:00.902Z,17.25
2023-03-29T20:09:29.432Z,19.75
2023-03-29T20:11:56.772Z,13.98
2023-03-29T20:14:23.901Z,7.90
2023-03-29T20:16:51.234Z,8.63
2023-03-29T20:19:18.778Z,9.80
2023-03-29T20:21:46.210Z,8.07
2023-03-29T20:24:13.318Z,8.23
2023-03-29T20:26:40.428Z,7.33
2023-03-29T20:29:07.502Z,12.18
2023-03-29T20:31:34.433Z,10.02
2023-03-29T20:34:01.980Z,11.63
2023-03-29T20:36:30.879Z,9.10
2023-03-29T20:38:59.362Z,11.00
2023-03-29T20:41:26.552Z,7.68
2023-03-29T20:43:58.580Z,9.35
2023-03-29T20:46:33.859Z,7.65
2023-03-29T20:49:02.976Z,10.85
2023-03-29T20:51:33.246Z,13.50
2023-03-29T20:54:04.923Z,12.65
2023-03-29T20:56:34.370Z,12.60
2023-03-29T20:59:01.424Z,13.52
2023-03-29T21:01:30.205Z,15.95
2023-03-29T21:03:57.210Z,16.77
2023-03-29T21:06:24.440Z,14.82
2023-03-29T21:08:52.508Z,22.52
2023-03-29T21:11:21.053Z,27.35
2023-03-29T21:13:47.980Z,26.08
2023-03-29T21:16:15.700Z,20.63
2023-03-29T21:18:43.428Z,20.40
2023-03-29T21:21:11.670Z,16.92
2023-03-29T21:23:39.222Z,16.08
2023-03-29T21:26:09.505Z,23.38
2023-03-29T21:28:37.705Z,23.43
2023-03-29T21:31:06.285Z,20.02
2023-03-29T21:33:34.651Z,19.10
2023-03-29T21:36:02.177Z,13.43
2023-03-29T21:38:29.203Z,12.85
2023-03-29T21:40:56.475Z,11.00
2023-03-29T21:43:23.683Z,9.45
2023-03-29T21:45:50.943Z,8.63
2023-03-29T21:48:18.060Z,7.47
2023-03-29T21:50:48.690Z,11.93
2023-03-29T21:53:16.173Z,6.70
2023-03-29T21:55:43.020Z,7.75
2023-03-29T21:58:10.334Z,7.85
2023-03-29T22:00:37.310Z,7.95
2023-03-29T22:03:04.422Z,9.73
2023-03-29T22:05:31.343Z,12.00
2023-03-29T22:08:00.396Z,10.65
2023-03-29T22:10:27.483Z,10.65
2023-03-29T22:12:54.333Z,10.82
2023-03-29T22:15:21.098Z,10.40
2023-03-29T22:17:48.628Z,11.63
2023-03-29T22:20:15.611Z,13.25
2023-03-29T22:22:50.808Z,7.35
2023-03-29T22:25:19.488Z,9.32
2023-03-29T22:27:48.287Z,8.32
2023-03-29T22:30:16.169Z,8.07
2023-03-29T22:32:43.192Z,9.43
2023-03-29T22:35:10.751Z,8.27
2023-03-29T22:37:44.295Z,12.82
2023-03-29T22:40:12.354Z,8.95
2023-03-29T22:42:39.368Z,8.73
2023-03-29T22:45:07.522Z,8.27
2023-03-29T22:47:35.394Z,8.43
2023-03-29T22:50:02.440Z,8.73
2023-03-29T22:52:29.435Z,7.62
2023-03-29T22:54:56.431Z,7.00
2023-03-29T22:57:23.388Z,7.75
2023-03-29T22:59:50.522Z,7.22
2023-03-29T23:02:17.427Z,9.77
2023-03-29T23:04:45.565Z,8.57
2023-03-29T23:07:12.518Z,7.87
2023-03-29T23:09:39.521Z,6.85
2023-03-29T23:12:06.852Z,6.93
2023-03-29T23:14:34.689Z,6.45
2023-03-29T23:17:01.491Z,13.38
2023-03-29T23:19:28.402Z,10.10
2023-03-29T23:21:55.270Z,8.57
2023-03-29T23:24:22.922Z,7.87
2023-03-29T23:26:49.735Z,5.68
2023-03-29T23:29:16.660Z,7.78
2023-03-29T23:31:44.390Z,10.27
2023-03-29T23:34:13.468Z,9.82
2023-03-29T23:36:40.480Z,8.88
2023-03-29T23:39:08.085Z,8.07
2023-03-29T23:41:35.096Z,9.45
2023-03-29T23:44:03.764Z,9.83
2023-03-29T23:46:32.530Z,9.50
2023-03-29T23:48:59.743Z,11.93
2023-03-29T23:51:30.605Z,12.15
2023-03-29T23:53:59.607Z,12.52
2023-03-29T23:56:26.633Z,9.97
2023-03-29T23:58:54.015Z,9.75
